sensor_id;sensor_type;location;lat;lon;timestamp;pressure;altitude;pressure_sealevel;temperature
67501;BMP180;54349;52.528;19.760;2022-12-29T00:01:08;100253.40;;;22.20
67501;BMP180;54349;52.528;19.760;2022-12-29T00:03:36;100252.20;;;22.20
67501;BMP180;54349;52.528;19.760;2022-12-29T00:06:05;100249.80;;;22.20
67501;BMP180;54349;52.528;19.760;2022-12-29T00:08:35;100249.00;;;22.20
67501;BMP180;54349;52.528;19.760;2022-12-29T00:11:19;100247.20;;;22.20
67501;BMP180;54349;52.528;19.760;2022-12-29T00:13:48;100242.00;;;22.20
67501;BMP180;54349;52.528;19.760;2022-12-29T00:16:42;100240.40;;;22.20
67501;BMP180;54349;52.528;19.760;2022-12-29T00:19:12;100241.20;;;22.20
67501;BMP180;54349;52.528;19.760;2022-12-29T00:22:00;100242.00;;;22.20
67501;BMP180;54349;52.528;19.760;2022-12-29T00:24:48;100237.40;;;22.20
67501;BMP180;54349;52.528;19.760;2022-12-29T00:27:35;100240.40;;;22.20
67501;BMP180;54349;52.528;19.760;2022-12-29T00:30:27;100237.40;;;22.20
67501;BMP180;54349;52.528;19.760;2022-12-29T00:33:18;100236.60;;;22.20
67501;BMP180;54349;52.528;19.760;2022-12-29T00:36:18;100228.40;;;22.20
67501;BMP180;54349;52.528;19.760;2022-12-29T00:38:53;100227.60;;;22.20
67501;BMP180;54349;52.528;19.760;2022-12-29T00:41:42;100224.00;;;22.20
67501;BMP180;54349;52.528;19.760;2022-12-29T00:44:31;100217.00;;;22.20
67501;BMP180;54349;52.528;19.760;2022-12-29T00:46:59;100211.40;;;22.20
67501;BMP180;54349;52.528;19.760;2022-12-29T00:49:33;100208.40;;;22.20
67501;BMP180;54349;52.528;19.760;2022-12-29T00:52:07;100208.80;;;22.24
67501;BMP180;54349;52.528;19.760;2022-12-29T00:54:39;100207.20;;;22.30
67501;BMP180;54349;52.528;19.760;2022-12-29T00:57:09;100199.00;;;22.30
67501;BMP180;54349;52.528;19.760;2022-12-29T00:59:42;100196.60;;;22.30
67501;BMP180;54349;52.528;19.760;2022-12-29T01:02:15;100197.20;;;22.36
67501;BMP180;54349;52.528;19.760;2022-12-29T01:04:45;100197.60;;;22.40
67501;BMP180;54349;52.528;19.760;2022-12-29T01:07:16;100199.60;;;22.40
67501;BMP180;54349;52.528;19.760;2022-12-29T01:09:45;100205.00;;;22.40
67501;BMP180;54349;52.528;19.760;2022-12-29T01:12:34;100204.60;;;22.40
67501;BMP180;54349;52.528;19.760;2022-12-29T01:15:13;100200.40;;;22.46
67501;BMP180;54349;52.528;19.760;2022-12-29T01:17:43;100197.60;;;22.50
67501;BMP180;54349;52.528;19.760;2022-12-29T01:20:13;100197.00;;;22.50
67501;BMP180;54349;52.528;19.760;2022-12-29T01:22:42;100194.40;;;22.50
67501;BMP180;54349;52.528;19.760;2022-12-29T01:25:13;100194.40;;;22.50
67501;BMP180;54349;52.528;19.760;2022-12-29T01:27:42;100189.40;;;22.50
67501;BMP180;54349;52.528;19.760;2022-12-29T01:30:11;100188.60;;;22.54
67501;BMP180;54349;52.528;19.760;2022-12-29T01:32:39;100186.40;;;22.60
67501;BMP180;54349;52.528;19.760;2022-12-29T01:35:08;100178.40;;;22.60
67501;BMP180;54349;52.528;19.760;2022-12-29T01:37:37;100169.60;;;22.60
67501;BMP180;54349;52.528;19.760;2022-12-29T01:40:06;100173.60;;;22.60
67501;BMP180;54349;52.528;19.760;2022-12-29T01:42:35;100168.20;;;22.60
67501;BMP180;54349;52.528;19.760;2022-12-29T01:45:11;100175.20;;;22.60
67501;BMP180;54349;52.528;19.760;2022-12-29T01:47:50;100172.00;;;22.60
67501;BMP180;54349;52.528;19.760;2022-12-29T01:53:15;100162.20;;;22.68
67501;BMP180;54349;52.528;19.760;2022-12-29T01:55:52;100151.80;;;22.70
67501;BMP180;54349;52.528;19.760;2022-12-29T01:58:28;100142.00;;;22.70
67501;BMP180;54349;52.528;19.760;2022-12-29T02:00:59;100150.40;;;22.70
67501;BMP180;54349;52.528;19.760;2022-12-29T02:03:33;100143.00;;;22.70
67501;BMP180;54349;52.528;19.760;2022-12-29T02:06:12;100141.60;;;22.70
67501;BMP180;54349;52.528;19.760;2022-12-29T02:08:47;100142.80;;;22.70
67501;BMP180;54349;52.528;19.760;2022-12-29T02:11:17;100141.80;;;22.70
67501;BMP180;54349;52.528;19.760;2022-12-29T02:13:46;100152.80;;;22.70
67501;BMP180;54349;52.528;19.760;2022-12-29T02:16:40;100158.80;;;22.70
67501;BMP180;54349;52.528;19.760;2022-12-29T02:22:55;100159.80;;;22.60
67501;BMP180;54349;52.528;19.760;2022-12-29T02:35:23;100153.00;;;22.40
67501;BMP180;54349;52.528;19.760;2022-12-29T02:40:53;100142.40;;;22.30
67501;BMP180;54349;52.528;19.760;2022-12-29T02:43:38;100146.20;;;22.30
67501;BMP180;54349;52.528;19.760;2022-12-29T02:49:21;100135.60;;;22.20
67501;BMP180;54349;52.528;19.760;2022-12-29T02:52:11;100132.20;;;22.20
67501;BMP180;54349;52.528;19.760;2022-12-29T02:54:54;100127.40;;;22.18
67501;BMP180;54349;52.528;19.760;2022-12-29T03:00:10;100106.60;;;22.10
67501;BMP180;54349;52.528;19.760;2022-12-29T03:13:49;100107.20;;;21.90
67501;BMP180;54349;52.528;19.760;2022-12-29T03:16:50;100104.00;;;21.90
67501;BMP180;54349;52.528;19.760;2022-12-29T03:19:28;100110.60;;;21.90
67501;BMP180;54349;52.528;19.760;2022-12-29T03:22:06;100100.60;;;21.82
67501;BMP180;54349;52.528;19.760;2022-12-29T03:25:37;100094.20;;;21.80
67501;BMP180;54349;52.528;19.760;2022-12-29T03:28:12;100092.80;;;21.80
67501;BMP180;54349;52.528;19.760;2022-12-29T03:30:46;100082.80;;;21.80
67501;BMP180;54349;52.528;19.760;2022-12-29T03:33:22;100067.40;;;21.76
67501;BMP180;54349;52.528;19.760;2022-12-29T03:35:58;100071.80;;;21.70
67501;BMP180;54349;52.528;19.760;2022-12-29T03:38:40;100071.60;;;21.70
67501;BMP180;54349;52.528;19.760;2022-12-29T03:41:21;100067.80;;;21.70
67501;BMP180;54349;52.528;19.760;2022-12-29T03:43:51;100062.20;;;21.70
67501;BMP180;54349;52.528;19.760;2022-12-29T03:46:19;100056.40;;;21.62
67501;BMP180;54349;52.528;19.760;2022-12-29T03:48:47;100051.00;;;21.60
67501;BMP180;54349;52.528;19.760;2022-12-29T03:51:16;100057.60;;;21.60
67501;BMP180;54349;52.528;19.760;2022-12-29T03:53:45;100060.00;;;21.60
67501;BMP180;54349;52.528;19.760;2022-12-29T03:56:13;100063.20;;;21.60
67501;BMP180;54349;52.528;19.760;2022-12-29T03:58:42;100065.60;;;21.50
67501;BMP180;54349;52.528;19.760;2022-12-29T04:01:15;100059.00;;;21.50
67501;BMP180;54349;52.528;19.760;2022-12-29T04:03:45;100053.60;;;21.50
67501;BMP180;54349;52.528;19.760;2022-12-29T04:06:14;100051.60;;;21.50
67501;BMP180;54349;52.528;19.760;2022-12-29T04:08:53;100053.40;;;21.50
67501;BMP180;54349;52.528;19.760;2022-12-29T04:11:23;100044.40;;;21.46
67501;BMP180;54349;52.528;19.760;2022-12-29T04:14:00;100046.20;;;21.40
67501;BMP180;54349;52.528;19.760;2022-12-29T04:16:30;100041.80;;;21.40
67501;BMP180;54349;52.528;19.760;2022-12-29T04:18:59;100045.80;;;21.40
67501;BMP180;54349;52.528;19.760;2022-12-29T04:21:29;100040.60;;;21.40
67501;BMP180;54349;52.528;19.760;2022-12-29T04:23:58;100039.20;;;21.38
67501;BMP180;54349;52.528;19.760;2022-12-29T04:26:28;100034.60;;;21.30
67501;BMP180;54349;52.528;19.760;2022-12-29T04:29:26;100028.80;;;21.30
67501;BMP180;54349;52.528;19.760;2022-12-29T04:32:15;100026.40;;;21.30
67501;BMP180;54349;52.528;19.760;2022-12-29T04:34:49;100020.40;;;21.30
67501;BMP180;54349;52.528;19.760;2022-12-29T04:37:18;100016.80;;;21.30
67501;BMP180;54349;52.528;19.760;2022-12-29T04:39:47;100015.40;;;21.30
67501;BMP180;54349;52.528;19.760;2022-12-29T04:42:15;100023.20;;;21.40
67501;BMP180;54349;52.528;19.760;2022-12-29T04:44:45;100011.40;;;21.42
67501;BMP180;54349;52.528;19.760;2022-12-29T04:47:37;100014.20;;;21.50
67501;BMP180;54349;52.528;19.760;2022-12-29T04:50:26;100022.20;;;21.60
67501;BMP180;54349;52.528;19.760;2022-12-29T04:53:15;100019.80;;;21.60
67501;BMP180;54349;52.528;19.760;2022-12-29T04:55:48;100023.40;;;21.70
67501;BMP180;54349;52.528;19.760;2022-12-29T04:58:19;100019.80;;;21.80
67501;BMP180;54349;52.528;19.760;2022-12-29T05:00:51;100023.80;;;21.80
67501;BMP180;54349;52.528;19.760;2022-12-29T05:03:22;100025.20;;;21.90
67501;BMP180;54349;52.528;19.760;2022-12-29T05:05:56;100018.20;;;21.90
67501;BMP180;54349;52.528;19.760;2022-12-29T05:08:25;100017.40;;;21.90
67501;BMP180;54349;52.528;19.760;2022-12-29T05:10:57;100019.80;;;22.00
67501;BMP180;54349;52.528;19.760;2022-12-29T05:13:26;100006.00;;;22.10
67501;BMP180;54349;52.528;19.760;2022-12-29T05:15:55;100003.80;;;22.10
67501;BMP180;54349;52.528;19.760;2022-12-29T05:18:24;100006.60;;;22.10
67501;BMP180;54349;52.528;19.760;2022-12-29T05:20:55;100003.20;;;22.10
67501;BMP180;54349;52.528;19.760;2022-12-29T05:23:29;100011.60;;;22.12
67501;BMP180;54349;52.528;19.760;2022-12-29T05:26:04;100003.00;;;22.20
67501;BMP180;54349;52.528;19.760;2022-12-29T05:28:44;100010.40;;;22.20
67501;BMP180;54349;52.528;19.760;2022-12-29T05:31:17;100007.00;;;22.26
67501;BMP180;54349;52.528;19.760;2022-12-29T05:33:46;99998.00;;;22.30
67501;BMP180;54349;52.528;19.760;2022-12-29T05:36:15;99994.80;;;22.30
67501;BMP180;54349;52.528;19.760;2022-12-29T05:38:49;99999.60;;;22.30
67501;BMP180;54349;52.528;19.760;2022-12-29T05:41:18;99992.80;;;22.30
67501;BMP180;54349;52.528;19.760;2022-12-29T05:43:47;99992.00;;;22.30
67501;BMP180;54349;52.528;19.760;2022-12-29T05:46:31;99992.20;;;22.30
67501;BMP180;54349;52.528;19.760;2022-12-29T05:49:19;99995.20;;;22.30
67501;BMP180;54349;52.528;19.760;2022-12-29T05:52:09;99983.20;;;22.30
67501;BMP180;54349;52.528;19.760;2022-12-29T05:54:38;99981.40;;;22.30
67501;BMP180;54349;52.528;19.760;2022-12-29T05:57:12;99985.20;;;22.30
67501;BMP180;54349;52.528;19.760;2022-12-29T05:59:42;99989.80;;;22.30
67501;BMP180;54349;52.528;19.760;2022-12-29T06:02:11;99992.80;;;22.30
67501;BMP180;54349;52.528;19.760;2022-12-29T06:04:39;99990.20;;;22.30
67501;BMP180;54349;52.528;19.760;2022-12-29T06:07:08;99988.00;;;22.30
67501;BMP180;54349;52.528;19.760;2022-12-29T06:09:42;99991.00;;;22.30
67501;BMP180;54349;52.528;19.760;2022-12-29T06:12:11;99992.80;;;22.30
67501;BMP180;54349;52.528;19.760;2022-12-29T06:14:42;99996.60;;;22.30
67501;BMP180;54349;52.528;19.760;2022-12-29T06:17:11;99991.60;;;22.30
67501;BMP180;54349;52.528;19.760;2022-12-29T06:19:40;99988.80;;;22.30
67501;BMP180;54349;52.528;19.760;2022-12-29T06:22:08;99990.80;;;22.30
67501;BMP180;54349;52.528;19.760;2022-12-29T06:24:43;99980.80;;;22.30
67501;BMP180;54349;52.528;19.760;2022-12-29T06:27:13;99983.40;;;22.30
67501;BMP180;54349;52.528;19.760;2022-12-29T06:29:42;99984.80;;;22.30
67501;BMP180;54349;52.528;19.760;2022-12-29T06:32:10;99979.60;;;22.30
67501;BMP180;54349;52.528;19.760;2022-12-29T06:34:44;99972.40;;;22.30
67501;BMP180;54349;52.528;19.760;2022-12-29T06:37:13;99969.80;;;22.24
67501;BMP180;54349;52.528;19.760;2022-12-29T06:39:42;99960.80;;;22.22
67501;BMP180;54349;52.528;19.760;2022-12-29T06:42:12;99954.60;;;22.24
67501;BMP180;54349;52.528;19.760;2022-12-29T06:44:40;99947.80;;;22.30
67501;BMP180;54349;52.528;19.760;2022-12-29T06:47:11;99941.00;;;22.30
67501;BMP180;54349;52.528;19.760;2022-12-29T06:49:39;99946.40;;;22.30
67501;BMP180;54349;52.528;19.760;2022-12-29T06:52:07;99947.60;;;22.30
67501;BMP180;54349;52.528;19.760;2022-12-29T06:54:40;99945.00;;;22.30
67501;BMP180;54349;52.528;19.760;2022-12-29T06:57:08;99949.60;;;22.30
67501;BMP180;54349;52.528;19.760;2022-12-29T06:59:37;99944.00;;;22.30
67501;BMP180;54349;52.528;19.760;2022-12-29T07:02:05;99955.80;;;22.30
67501;BMP180;54349;52.528;19.760;2022-12-29T07:04:34;99958.60;;;22.30
67501;BMP180;54349;52.528;19.760;2022-12-29T07:07:02;99956.40;;;22.30
67501;BMP180;54349;52.528;19.760;2022-12-29T07:09:32;99961.00;;;22.30
67501;BMP180;54349;52.528;19.760;2022-12-29T07:12:00;99959.40;;;22.30
67501;BMP180;54349;52.528;19.760;2022-12-29T07:14:29;99967.60;;;22.30
67501;BMP180;54349;52.528;19.760;2022-12-29T07:16:58;99958.40;;;22.30
67501;BMP180;54349;52.528;19.760;2022-12-29T07:19:26;99957.40;;;22.30
67501;BMP180;54349;52.528;19.760;2022-12-29T07:21:54;99964.40;;;22.30
67501;BMP180;54349;52.528;19.760;2022-12-29T07:24:23;99961.80;;;22.30
67501;BMP180;54349;52.528;19.760;2022-12-29T07:26:53;99956.40;;;22.30
67501;BMP180;54349;52.528;19.760;2022-12-29T07:29:22;99947.00;;;22.30
67501;BMP180;54349;52.528;19.760;2022-12-29T07:31:51;99956.00;;;22.30
67501;BMP180;54349;52.528;19.760;2022-12-29T07:34:19;99958.00;;;22.30
67501;BMP180;54349;52.528;19.760;2022-12-29T07:36:48;99956.00;;;22.30
67501;BMP180;54349;52.528;19.760;2022-12-29T07:39:18;99954.80;;;22.30
67501;BMP180;54349;52.528;19.760;2022-12-29T07:41:46;99953.20;;;22.30
67501;BMP180;54349;52.528;19.760;2022-12-29T07:44:20;99954.80;;;22.30
67501;BMP180;54349;52.528;19.760;2022-12-29T07:47:08;99958.00;;;22.30
67501;BMP180;54349;52.528;19.760;2022-12-29T07:49:38;99960.80;;;22.30
67501;BMP180;54349;52.528;19.760;2022-12-29T07:52:08;99967.40;;;22.30
67501;BMP180;54349;52.528;19.760;2022-12-29T07:54:36;99975.20;;;22.30
67501;BMP180;54349;52.528;19.760;2022-12-29T07:57:06;99977.80;;;22.30
67501;BMP180;54349;52.528;19.760;2022-12-29T07:59:34;99978.80;;;22.30
67501;BMP180;54349;52.528;19.760;2022-12-29T08:02:04;99979.40;;;22.30
67501;BMP180;54349;52.528;19.760;2022-12-29T08:04:33;99973.20;;;22.30
67501;BMP180;54349;52.528;19.760;2022-12-29T08:07:01;99979.40;;;22.30
67501;BMP180;54349;52.528;19.760;2022-12-29T08:09:29;99984.20;;;22.30
67501;BMP180;54349;52.528;19.760;2022-12-29T08:11:58;99987.20;;;22.30
67501;BMP180;54349;52.528;19.760;2022-12-29T08:14:28;99992.60;;;22.30
67501;BMP180;54349;52.528;19.760;2022-12-29T08:16:56;99993.00;;;22.30
67501;BMP180;54349;52.528;19.760;2022-12-29T08:19:24;99984.40;;;22.30
67501;BMP180;54349;52.528;19.760;2022-12-29T08:21:53;99981.00;;;22.30
67501;BMP180;54349;52.528;19.760;2022-12-29T08:24:22;99982.80;;;22.30
67501;BMP180;54349;52.528;19.760;2022-12-29T08:26:51;99982.60;;;22.30
67501;BMP180;54349;52.528;19.760;2022-12-29T08:29:20;99974.60;;;22.30
67501;BMP180;54349;52.528;19.760;2022-12-29T08:31:49;99966.20;;;22.30
67501;BMP180;54349;52.528;19.760;2022-12-29T08:34:18;99972.40;;;22.30
67501;BMP180;54349;52.528;19.760;2022-12-29T08:36:46;99977.40;;;22.30
67501;BMP180;54349;52.528;19.760;2022-12-29T08:39:15;99983.20;;;22.30
67501;BMP180;54349;52.528;19.760;2022-12-29T08:41:44;99980.80;;;22.30
67501;BMP180;54349;52.528;19.760;2022-12-29T08:44:13;99983.60;;;22.30
67501;BMP180;54349;52.528;19.760;2022-12-29T08:46:41;99973.40;;;22.30
67501;BMP180;54349;52.528;19.760;2022-12-29T08:49:10;99973.40;;;22.30
67501;BMP180;54349;52.528;19.760;2022-12-29T08:51:39;99975.40;;;22.30
67501;BMP180;54349;52.528;19.760;2022-12-29T08:54:08;99978.20;;;22.30
67501;BMP180;54349;52.528;19.760;2022-12-29T08:56:36;99978.40;;;22.30
67501;BMP180;54349;52.528;19.760;2022-12-29T08:59:05;99973.60;;;22.30
67501;BMP180;54349;52.528;19.760;2022-12-29T09:01:33;99968.60;;;22.30
67501;BMP180;54349;52.528;19.760;2022-12-29T09:04:04;99970.20;;;22.30
67501;BMP180;54349;52.528;19.760;2022-12-29T09:06:45;99966.60;;;22.30
67501;BMP180;54349;52.528;19.760;2022-12-29T09:09:13;99963.40;;;22.30
67501;BMP180;54349;52.528;19.760;2022-12-29T09:11:42;99952.00;;;22.30
67501;BMP180;54349;52.528;19.760;2022-12-29T09:14:12;99953.60;;;22.30
67501;BMP180;54349;52.528;19.760;2022-12-29T09:16:41;99954.60;;;22.32
67501;BMP180;54349;52.528;19.760;2022-12-29T09:19:30;99958.60;;;22.34
67501;BMP180;54349;52.528;19.760;2022-12-29T09:21:58;99957.40;;;22.34
67501;BMP180;54349;52.528;19.760;2022-12-29T09:24:27;99960.20;;;22.30
67501;BMP180;54349;52.528;19.760;2022-12-29T09:26:56;99966.20;;;22.30
67501;BMP180;54349;52.528;19.760;2022-12-29T09:29:24;99965.40;;;22.32
67501;BMP180;54349;52.528;19.760;2022-12-29T09:31:53;99964.40;;;22.36
67501;BMP180;54349;52.528;19.760;2022-12-29T09:34:21;99961.00;;;22.32
67501;BMP180;54349;52.528;19.760;2022-12-29T09:36:51;99961.80;;;22.34
67501;BMP180;54349;52.528;19.760;2022-12-29T09:39:19;99961.80;;;22.34
67501;BMP180;54349;52.528;19.760;2022-12-29T09:42:37;99962.80;;;22.30
67501;BMP180;54349;52.528;19.760;2022-12-29T09:45:30;99946.20;;;22.30
67501;BMP180;54349;52.528;19.760;2022-12-29T09:48:03;99939.20;;;22.36
67501;BMP180;54349;52.528;19.760;2022-12-29T09:50:39;99942.20;;;22.36
67501;BMP180;54349;52.528;19.760;2022-12-29T09:53:31;99944.20;;;22.32
67501;BMP180;54349;52.528;19.760;2022-12-29T09:56:02;99938.80;;;22.32
67501;BMP180;54349;52.528;19.760;2022-12-29T10:01:46;99946.00;;;22.30
67501;BMP180;54349;52.528;19.760;2022-12-29T10:04:14;99954.60;;;22.34
67501;BMP180;54349;52.528;19.760;2022-12-29T10:10:31;99949.20;;;22.40
67501;BMP180;54349;52.528;19.760;2022-12-29T10:16:17;99941.40;;;22.40
67501;BMP180;54349;52.528;19.760;2022-12-29T10:21:43;99930.00;;;22.40
67501;BMP180;54349;52.528;19.760;2022-12-29T10:24:21;99921.60;;;22.40
67501;BMP180;54349;52.528;19.760;2022-12-29T10:26:51;99930.20;;;22.36
67501;BMP180;54349;52.528;19.760;2022-12-29T10:29:29;99932.40;;;22.40
67501;BMP180;54349;52.528;19.760;2022-12-29T10:32:34;99925.40;;;22.40
67501;BMP180;54349;52.528;19.760;2022-12-29T10:35:11;99920.60;;;22.40
67501;BMP180;54349;52.528;19.760;2022-12-29T10:38:19;99925.80;;;22.34
67501;BMP180;54349;52.528;19.760;2022-12-29T10:41:00;99932.60;;;22.38
67501;BMP180;54349;52.528;19.760;2022-12-29T10:43:50;99927.20;;;22.30
67501;BMP180;54349;52.528;19.760;2022-12-29T10:46:35;99917.80;;;22.30
67501;BMP180;54349;52.528;19.760;2022-12-29T10:49:28;99916.80;;;22.30
67501;BMP180;54349;52.528;19.760;2022-12-29T10:52:02;99928.20;;;22.32
67501;BMP180;54349;52.528;19.760;2022-12-29T10:59:57;99915.80;;;22.30
67501;BMP180;54349;52.528;19.760;2022-12-29T11:02:53;99920.00;;;22.30
67501;BMP180;54349;52.528;19.760;2022-12-29T11:05:56;99916.40;;;22.30
67501;BMP180;54349;52.528;19.760;2022-12-29T11:08:33;99912.60;;;22.30
67501;BMP180;54349;52.528;19.760;2022-12-29T11:11:06;99916.80;;;22.30
67501;BMP180;54349;52.528;19.760;2022-12-29T11:13:49;99915.80;;;22.30
67501;BMP180;54349;52.528;19.760;2022-12-29T11:16:32;99910.00;;;22.30
67501;BMP180;54349;52.528;19.760;2022-12-29T11:19:03;99906.40;;;22.30
67501;BMP180;54349;52.528;19.760;2022-12-29T11:21:38;99905.80;;;22.30
67501;BMP180;54349;52.528;19.760;2022-12-29T11:24:27;99903.00;;;22.30
67501;BMP180;54349;52.528;19.760;2022-12-29T11:27:21;99898.60;;;22.30
67501;BMP180;54349;52.528;19.760;2022-12-29T11:29:53;99896.20;;;22.30
67501;BMP180;54349;52.528;19.760;2022-12-29T11:32:25;99886.40;;;22.30
67501;BMP180;54349;52.528;19.760;2022-12-29T11:34:58;99895.40;;;22.30
67501;BMP180;54349;52.528;19.760;2022-12-29T11:37:30;99881.20;;;22.30
67501;BMP180;54349;52.528;19.760;2022-12-29T11:40:16;99880.40;;;22.30
67501;BMP180;54349;52.528;19.760;2022-12-29T11:42:56;99882.40;;;22.30
67501;BMP180;54349;52.528;19.760;2022-12-29T11:45:30;99881.40;;;22.30
67501;BMP180;54349;52.528;19.760;2022-12-29T11:48:17;99876.60;;;22.30
67501;BMP180;54349;52.528;19.760;2022-12-29T11:50:58;99880.60;;;22.30
67501;BMP180;54349;52.528;19.760;2022-12-29T11:53:43;99883.40;;;22.26
67501;BMP180;54349;52.528;19.760;2022-12-29T11:56:21;99883.60;;;22.28
67501;BMP180;54349;52.528;19.760;2022-12-29T11:58:51;99884.20;;;22.26
67501;BMP180;54349;52.528;19.760;2022-12-29T12:01:37;99873.40;;;22.30
67501;BMP180;54349;52.528;19.760;2022-12-29T12:04:16;99873.80;;;22.30
67501;BMP180;54349;52.528;19.760;2022-12-29T12:07:20;99877.40;;;22.30
67501;BMP180;54349;52.528;19.760;2022-12-29T12:09:58;99879.80;;;22.30
67501;BMP180;54349;52.528;19.760;2022-12-29T12:13:02;99876.80;;;22.24
67501;BMP180;54349;52.528;19.760;2022-12-29T12:15:47;99873.60;;;22.24
67501;BMP180;54349;52.528;19.760;2022-12-29T12:18:49;99872.20;;;22.30
67501;BMP180;54349;52.528;19.760;2022-12-29T12:21:29;99868.60;;;22.30
67501;BMP180;54349;52.528;19.760;2022-12-29T12:25:04;99864.00;;;22.30
67501;BMP180;54349;52.528;19.760;2022-12-29T12:30:17;99858.20;;;22.26
67501;BMP180;54349;52.528;19.760;2022-12-29T12:32:58;99863.00;;;22.24
67501;BMP180;54349;52.528;19.760;2022-12-29T12:53:50;99861.60;;;22.30
67501;BMP180;54349;52.528;19.760;2022-12-29T13:05:28;99856.00;;;22.30
67501;BMP180;54349;52.528;19.760;2022-12-29T13:14:18;99852.80;;;22.30
67501;BMP180;54349;52.528;19.760;2022-12-29T13:20:41;99853.80;;;22.30
67501;BMP180;54349;52.528;19.760;2022-12-29T13:26:25;99861.00;;;22.30
67501;BMP180;54349;52.528;19.760;2022-12-29T13:35:58;99848.00;;;22.30
67501;BMP180;54349;52.528;19.760;2022-12-29T13:38:46;99857.60;;;22.30
67501;BMP180;54349;52.528;19.760;2022-12-29T13:41:41;99857.60;;;22.30
67501;BMP180;54349;52.528;19.760;2022-12-29T13:44:43;99857.40;;;22.30
67501;BMP180;54349;52.528;19.760;2022-12-29T13:47:25;99862.60;;;22.30
67501;BMP180;54349;52.528;19.760;2022-12-29T13:49:58;99862.20;;;22.30
67501;BMP180;54349;52.528;19.760;2022-12-29T14:01:03;99876.00;;;22.20
67501;BMP180;54349;52.528;19.760;2022-12-29T14:03:50;99877.80;;;22.20
67501;BMP180;54349;52.528;19.760;2022-12-29T14:06:30;99875.40;;;22.20
67501;BMP180;54349;52.528;19.760;2022-12-29T14:09:04;99878.40;;;22.18
67501;BMP180;54349;52.528;19.760;2022-12-29T14:11:39;99877.40;;;22.12
67501;BMP180;54349;52.528;19.760;2022-12-29T14:14:33;99883.20;;;22.10
67501;BMP180;54349;52.528;19.760;2022-12-29T14:17:11;99868.00;;;22.10
67501;BMP180;54349;52.528;19.760;2022-12-29T14:19:44;99869.00;;;22.10
67501;BMP180;54349;52.528;19.760;2022-12-29T14:22:22;99867.00;;;22.10
67501;BMP180;54349;52.528;19.760;2022-12-29T14:25:00;99874.60;;;22.10
67501;BMP180;54349;52.528;19.760;2022-12-29T14:29:56;99881.00;;;22.16
67501;BMP180;54349;52.528;19.760;2022-12-29T14:34:56;99888.40;;;22.20
67501;BMP180;54349;52.528;19.760;2022-12-29T14:40:23;99890.00;;;22.20
67501;BMP180;54349;52.528;19.760;2022-12-29T14:42:56;99886.80;;;22.20
67501;BMP180;54349;52.528;19.760;2022-12-29T14:45:30;99887.40;;;22.20
67501;BMP180;54349;52.528;19.760;2022-12-29T14:48:00;99892.00;;;22.20
67501;BMP180;54349;52.528;19.760;2022-12-29T14:50:43;99892.60;;;22.22
67501;BMP180;54349;52.528;19.760;2022-12-29T14:56:15;99894.20;;;22.30
67501;BMP180;54349;52.528;19.760;2022-12-29T15:01:42;99892.40;;;22.30
67501;BMP180;54349;52.528;19.760;2022-12-29T15:04:38;99891.00;;;22.30
67501;BMP180;54349;52.528;19.760;2022-12-29T15:07:09;99885.00;;;22.30
67501;BMP180;54349;52.528;19.760;2022-12-29T15:10:03;99884.60;;;22.30
67501;BMP180;54349;52.528;19.760;2022-12-29T15:12:51;99883.20;;;22.30
67501;BMP180;54349;52.528;19.760;2022-12-29T15:15:26;99890.60;;;22.30
67501;BMP180;54349;52.528;19.760;2022-12-29T15:17:55;99887.00;;;22.30
67501;BMP180;54349;52.528;19.760;2022-12-29T15:20:26;99880.60;;;22.30
67501;BMP180;54349;52.528;19.760;2022-12-29T15:23:09;99877.60;;;22.30
67501;BMP180;54349;52.528;19.760;2022-12-29T15:26:05;99878.00;;;22.30
67501;BMP180;54349;52.528;19.760;2022-12-29T15:28:46;99878.00;;;22.30
67501;BMP180;54349;52.528;19.760;2022-12-29T15:31:20;99874.20;;;22.30
67501;BMP180;54349;52.528;19.760;2022-12-29T15:34:11;99874.40;;;22.30
67501;BMP180;54349;52.528;19.760;2022-12-29T15:36:40;99878.80;;;22.30
67501;BMP180;54349;52.528;19.760;2022-12-29T15:39:38;99877.00;;;22.30
67501;BMP180;54349;52.528;19.760;2022-12-29T15:42:39;99876.40;;;22.30
67501;BMP180;54349;52.528;19.760;2022-12-29T15:45:15;99880.40;;;22.30
67501;BMP180;54349;52.528;19.760;2022-12-29T15:47:46;99883.60;;;22.30
67501;BMP180;54349;52.528;19.760;2022-12-29T15:50:28;99875.80;;;22.30
67501;BMP180;54349;52.528;19.760;2022-12-29T15:52:58;99878.40;;;22.30
67501;BMP180;54349;52.528;19.760;2022-12-29T15:55:38;99878.00;;;22.30
67501;BMP180;54349;52.528;19.760;2022-12-29T15:58:28;99873.80;;;22.26
67501;BMP180;54349;52.528;19.760;2022-12-29T16:01:00;99879.20;;;22.22
67501;BMP180;54349;52.528;19.760;2022-12-29T16:03:36;99876.60;;;22.20
67501;BMP180;54349;52.528;19.760;2022-12-29T16:06:38;99878.60;;;22.20
67501;BMP180;54349;52.528;19.760;2022-12-29T16:09:18;99883.80;;;22.20
67501;BMP180;54349;52.528;19.760;2022-12-29T16:11:55;99887.00;;;22.20
67501;BMP180;54349;52.528;19.760;2022-12-29T16:14:54;99885.00;;;22.20
67501;BMP180;54349;52.528;19.760;2022-12-29T16:17:31;99886.00;;;22.20
67501;BMP180;54349;52.528;19.760;2022-12-29T16:20:15;99890.00;;;22.20
67501;BMP180;54349;52.528;19.760;2022-12-29T16:22:54;99890.00;;;22.20
67501;BMP180;54349;52.528;19.760;2022-12-29T16:25:33;99892.00;;;22.20
67501;BMP180;54349;52.528;19.760;2022-12-29T16:28:22;99890.80;;;22.20
67501;BMP180;54349;52.528;19.760;2022-12-29T16:31:06;99888.40;;;22.20
67501;BMP180;54349;52.528;19.760;2022-12-29T16:33:51;99887.40;;;22.20
67501;BMP180;54349;52.528;19.760;2022-12-29T16:36:34;99891.80;;;22.20
67501;BMP180;54349;52.528;19.760;2022-12-29T16:39:23;99892.40;;;22.20
67501;BMP180;54349;52.528;19.760;2022-12-29T16:41:54;99893.80;;;22.20
67501;BMP180;54349;52.528;19.760;2022-12-29T16:44:30;99896.20;;;22.20
67501;BMP180;54349;52.528;19.760;2022-12-29T16:49:47;99885.80;;;22.20
67501;BMP180;54349;52.528;19.760;2022-12-29T16:52:30;99886.60;;;22.20